sensor_id;sensor_type;location;lat;lon;timestamp;P1;durP1;ratioP1;P2;durP2;ratioP2
59093;SDS011;44880;52.814;18.270;2023-04-24T00:01:06;19.20;;;12.80;;
59093;SDS011;44880;52.814;18.270;2023-04-24T00:03:38;21.70;;;14.40;;
59093;SDS011;44880;52.814;18.270;2023-04-24T00:06:11;17.90;;;12.40;;
59093;SDS011;44880;52.814;18.270;2023-04-24T00:08:45;19.30;;;12.40;;
59093;SDS011;44880;52.814;18.270;2023-04-24T00:11:16;17.80;;;12.50;;
59093;SDS011;44880;52.814;18.270;2023-04-24T00:13:48;19.80;;;13.20;;
59093;SDS011;44880;52.814;18.270;2023-04-24T00:16:20;19.00;;;12.80;;
59093;SDS011;44880;52.814;18.270;2023-04-24T00:18:51;19.30;;;12.80;;
59093;SDS011;44880;52.814;18.270;2023-04-24T00:21:23;19.40;;;13.00;;
59093;SDS011;44880;52.814;18.270;2023-04-24T00:23:55;17.10;;;12.40;;
59093;SDS011;44880;52.814;18.270;2023-04-24T00:26:26;19.70;;;12.50;;
59093;SDS011;44880;52.814;18.270;2023-04-24T00:28:58;18.50;;;12.70;;
59093;SDS011;44880;52.814;18.270;2023-04-24T00:31:29;21.40;;;13.90;;
59093;SDS011;44880;52.814;18.270;2023-04-24T00:34:03;19.50;;;12.70;;
59093;SDS011;44880;52.814;18.270;2023-04-24T00:36:35;18.60;;;12.70;;
59093;SDS011;44880;52.814;18.270;2023-04-24T00:39:07;18.20;;;13.00;;
59093;SDS011;44880;52.814;18.270;2023-04-24T00:41:39;17.20;;;12.30;;
59093;SDS011;44880;52.814;18.270;2023-04-24T00:44:11;18.10;;;13.10;;
59093;SDS011;44880;52.814;18.270;2023-04-24T00:46:43;19.60;;;12.90;;
59093;SDS011;44880;52.814;18.270;2023-04-24T00:49:14;19.80;;;13.90;;
59093;SDS011;44880;52.814;18.270;2023-04-24T00:51:46;18.00;;;13.30;;
59093;SDS011;44880;52.814;18.270;2023-04-24T00:54:19;19.50;;;13.70;;
59093;SDS011;44880;52.814;18.270;2023-04-24T00:56:52;20.70;;;13.50;;
59093;SDS011;44880;52.814;18.270;2023-04-24T00:59:25;20.00;;;13.50;;
59093;SDS011;44880;52.814;18.270;2023-04-24T01:01:56;19.30;;;13.80;;
59093;SDS011;44880;52.814;18.270;2023-04-24T01:06:58;19.60;;;13.20;;
59093;SDS011;44880;52.814;18.270;2023-04-24T01:09:30;20.20;;;12.80;;
59093;SDS011;44880;52.814;18.270;2023-04-24T01:12:02;18.10;;;12.80;;
59093;SDS011;44880;52.814;18.270;2023-04-24T01:14:34;18.40;;;12.50;;
59093;SDS011;44880;52.814;18.270;2023-04-24T01:17:06;19.60;;;12.20;;
59093;SDS011;44880;52.814;18.270;2023-04-24T01:19:37;19.20;;;12.80;;
59093;SDS011;44880;52.814;18.270;2023-04-24T01:22:10;20.30;;;14.50;;
59093;SDS011;44880;52.814;18.270;2023-04-24T01:24:43;19.00;;;13.10;;
59093;SDS011;44880;52.814;18.270;2023-04-24T01:27:14;18.20;;;13.00;;
59093;SDS011;44880;52.814;18.270;2023-04-24T01:29:47;20.10;;;14.30;;
59093;SDS011;44880;52.814;18.270;2023-04-24T01:32:20;18.30;;;12.60;;
59093;SDS011;44880;52.814;18.270;2023-04-24T01:34:51;22.00;;;14.40;;
59093;SDS011;44880;52.814;18.270;2023-04-24T01:37:23;19.50;;;13.40;;
59093;SDS011;44880;52.814;18.270;2023-04-24T01:39:56;19.60;;;13.00;;
59093;SDS011;44880;52.814;18.270;2023-04-24T01:44:58;18.40;;;12.40;;
59093;SDS011;44880;52.814;18.270;2023-04-24T01:47:32;19.30;;;13.50;;
59093;SDS011;44880;52.814;18.270;2023-04-24T01:50:05;18.90;;;12.90;;
59093;SDS011;44880;52.814;18.270;2023-04-24T01:52:40;18.90;;;12.10;;
59093;SDS011;44880;52.814;18.270;2023-04-24T01:55:12;18.60;;;13.20;;
59093;SDS011;44880;52.814;18.270;2023-04-24T01:57:43;18.30;;;12.60;;
59093;SDS011;44880;52.814;18.270;2023-04-24T02:00:15;20.00;;;13.30;;
59093;SDS011;44880;52.814;18.270;2023-04-24T02:02:49;18.80;;;13.20;;
59093;SDS011;44880;52.814;18.270;2023-04-24T02:05:22;18.40;;;13.20;;
59093;SDS011;44880;52.814;18.270;2023-04-24T02:07:54;19.50;;;14.80;;
59093;SDS011;44880;52.814;18.270;2023-04-24T02:10:25;20.50;;;13.70;;
59093;SDS011;44880;52.814;18.270;2023-04-24T02:12:57;19.10;;;13.50;;
59093;SDS011;44880;52.814;18.270;2023-04-24T02:15:29;18.90;;;13.20;;
59093;SDS011;44880;52.814;18.270;2023-04-24T02:18:00;19.90;;;13.10;;
59093;SDS011;44880;52.814;18.270;2023-04-24T02:20:34;18.90;;;12.80;;
59093;SDS011;44880;52.814;18.270;2023-04-24T02:23:06;16.90;;;12.00;;
59093;SDS011;44880;52.814;18.270;2023-04-24T02:25:37;19.90;;;12.80;;
59093;SDS011;44880;52.814;18.270;2023-04-24T02:28:09;19.00;;;13.00;;
59093;SDS011;44880;52.814;18.270;2023-04-24T02:30:41;18.40;;;12.30;;
59093;SDS011;44880;52.814;18.270;2023-04-24T02:33:13;20.10;;;12.90;;
59093;SDS011;44880;52.814;18.270;2023-04-24T02:35:45;18.90;;;12.80;;
59093;SDS011;44880;52.814;18.270;2023-04-24T02:38:16;20.40;;;13.00;;
59093;SDS011;44880;52.814;18.270;2023-04-24T02:40:48;18.90;;;12.30;;
59093;SDS011;44880;52.814;18.270;2023-04-24T02:43:20;20.70;;;13.30;;
59093;SDS011;44880;52.814;18.270;2023-04-24T02:45:53;19.80;;;12.90;;
59093;SDS011;44880;52.814;18.270;2023-04-24T02:48:24;17.60;;;12.80;;
59093;SDS011;44880;52.814;18.270;2023-04-24T02:53:27;18.10;;;12.30;;
59093;SDS011;44880;52.814;18.270;2023-04-24T02:55:59;18.20;;;11.80;;
59093;SDS011;44880;52.814;18.270;2023-04-24T02:58:31;17.80;;;11.50;;
59093;SDS011;44880;52.814;18.270;2023-04-24T03:01:03;17.30;;;11.00;;
59093;SDS011;44880;52.814;18.270;2023-04-24T03:03:35;18.20;;;11.20;;
59093;SDS011;44880;52.814;18.270;2023-04-24T03:06:07;17.70;;;11.60;;
59093;SDS011;44880;52.814;18.270;2023-04-24T03:08:41;17.00;;;11.70;;
59093;SDS011;44880;52.814;18.270;2023-04-24T03:11:13;17.90;;;12.90;;
59093;SDS011;44880;52.814;18.270;2023-04-24T03:13:45;18.10;;;12.10;;
59093;SDS011;44880;52.814;18.270;2023-04-24T03:16:17;17.20;;;12.00;;
59093;SDS011;44880;52.814;18.270;2023-04-24T03:18:48;17.00;;;12.40;;
59093;SDS011;44880;52.814;18.270;2023-04-24T03:23:50;19.50;;;12.60;;
59093;SDS011;44880;52.814;18.270;2023-04-24T03:26:23;19.30;;;13.20;;
59093;SDS011;44880;52.814;18.270;2023-04-24T03:29:04;18.10;;;12.90;;
59093;SDS011;44880;52.814;18.270;2023-04-24T03:34:06;17.00;;;11.40;;
59093;SDS011;44880;52.814;18.270;2023-04-24T03:36:38;18.20;;;12.20;;
59093;SDS011;44880;52.814;18.270;2023-04-24T03:39:10;17.10;;;11.90;;
59093;SDS011;44880;52.814;18.270;2023-04-24T03:41:48;17.70;;;11.80;;
59093;SDS011;44880;52.814;18.270;2023-04-24T03:44:25;17.50;;;11.40;;
59093;SDS011;44880;52.814;18.270;2023-04-24T03:49:27;19.10;;;11.90;;
59093;SDS011;44880;52.814;18.270;2023-04-24T03:51:59;18.10;;;12.80;;
59093;SDS011;44880;52.814;18.270;2023-04-24T03:54:30;17.80;;;12.30;;
59093;SDS011;44880;52.814;18.270;2023-04-24T03:57:02;19.00;;;12.80;;
59093;SDS011;44880;52.814;18.270;2023-04-24T03:59:34;16.60;;;11.90;;
59093;SDS011;44880;52.814;18.270;2023-04-24T04:02:12;21.00;;;14.20;;
59093;SDS011;44880;52.814;18.270;2023-04-24T04:04:43;18.10;;;13.40;;
59093;SDS011;44880;52.814;18.270;2023-04-24T04:07:15;18.60;;;13.10;;
59093;SDS011;44880;52.814;18.270;2023-04-24T04:09:47;19.60;;;13.10;;
59093;SDS011;44880;52.814;18.270;2023-04-24T04:12:18;17.70;;;11.20;;
59093;SDS011;44880;52.814;18.270;2023-04-24T04:14:50;16.20;;;11.00;;
59093;SDS011;44880;52.814;18.270;2023-04-24T04:17:22;16.50;;;11.10;;
59093;SDS011;44880;52.814;18.270;2023-04-24T04:19:54;18.40;;;11.50;;
59093;SDS011;44880;52.814;18.270;2023-04-24T04:25:00;19.60;;;11.90;;
59093;SDS011;44880;52.814;18.270;2023-04-24T04:27:33;17.30;;;11.70;;
59093;SDS011;44880;52.814;18.270;2023-04-24T04:30:10;18.20;;;12.40;;
59093;SDS011;44880;52.814;18.270;2023-04-24T04:32:48;16.90;;;11.70;;
59093;SDS011;44880;52.814;18.270;2023-04-24T04:35:20;19.20;;;12.20;;
59093;SDS011;44880;52.814;18.270;2023-04-24T04:37:53;18.10;;;12.40;;
59093;SDS011;44880;52.814;18.270;2023-04-24T04:41:09;18.20;;;12.40;;
59093;SDS011;44880;52.814;18.270;2023-04-24T04:43:42;18.90;;;12.80;;
59093;SDS011;44880;52.814;18.270;2023-04-24T04:46:26;17.60;;;12.00;;
59093;SDS011;44880;52.814;18.270;2023-04-24T04:49:11;18.50;;;12.00;;
59093;SDS011;44880;52.814;18.270;2023-04-24T04:52:03;20.10;;;12.10;;
59093;SDS011;44880;52.814;18.270;2023-04-24T04:54:35;17.60;;;11.90;;
59093;SDS011;44880;52.814;18.270;2023-04-24T04:57:06;19.70;;;11.90;;
59093;SDS011;44880;52.814;18.270;2023-04-24T05:02:44;18.80;;;12.40;;
59093;SDS011;44880;52.814;18.270;2023-04-24T05:08:14;18.40;;;12.90;;
59093;SDS011;44880;52.814;18.270;2023-04-24T05:10:46;18.10;;;11.90;;
59093;SDS011;44880;52.814;18.270;2023-04-24T05:13:31;18.50;;;12.30;;
59093;SDS011;44880;52.814;18.270;2023-04-24T05:16:04;17.00;;;11.70;;
59093;SDS011;44880;52.814;18.270;2023-04-24T05:18:38;17.40;;;11.20;;
59093;SDS011;44880;52.814;18.270;2023-04-24T05:21:24;17.00;;;11.20;;
59093;SDS011;44880;52.814;18.270;2023-04-24T05:27:30;17.60;;;10.60;;
59093;SDS011;44880;52.814;18.270;2023-04-24T05:32:56;16.90;;;11.20;;
59093;SDS011;44880;52.814;18.270;2023-04-24T05:35:28;20.50;;;11.70;;
59093;SDS011;44880;52.814;18.270;2023-04-24T05:40:56;17.30;;;11.60;;
59093;SDS011;44880;52.814;18.270;2023-04-24T05:43:28;19.40;;;12.00;;
59093;SDS011;44880;52.814;18.270;2023-04-24T05:46:16;16.10;;;11.50;;
59093;SDS011;44880;52.814;18.270;2023-04-24T05:48:48;17.60;;;12.00;;
59093;SDS011;44880;52.814;18.270;2023-04-24T05:51:20;19.50;;;11.90;;
59093;SDS011;44880;52.814;18.270;2023-04-24T05:57:55;17.20;;;11.00;;
59093;SDS011;44880;52.814;18.270;2023-04-24T06:00:44;16.10;;;11.20;;
59093;SDS011;44880;52.814;18.270;2023-04-24T06:03:19;17.80;;;11.70;;
59093;SDS011;44880;52.814;18.270;2023-04-24T06:05:51;16.90;;;12.00;;
59093;SDS011;44880;52.814;18.270;2023-04-24T06:08:38;17.00;;;11.60;;
59093;SDS011;44880;52.814;18.270;2023-04-24T06:11:11;17.50;;;12.00;;
59093;SDS011;44880;52.814;18.270;2023-04-24T06:16:43;17.60;;;11.70;;
59093;SDS011;44880;52.814;18.270;2023-04-24T06:19:30;17.20;;;11.40;;
59093;SDS011;44880;52.814;18.270;2023-04-24T06:22:17;17.40;;;12.10;;
59093;SDS011;44880;52.814;18.270;2023-04-24T06:24:53;15.40;;;11.60;;
59093;SDS011;44880;52.814;18.270;2023-04-24T06:30:24;15.50;;;10.70;;
59093;SDS011;44880;52.814;18.270;2023-04-24T06:33:01;15.00;;;10.40;;
59093;SDS011;44880;52.814;18.270;2023-04-24T06:35:54;15.80;;;10.70;;
59093;SDS011;44880;52.814;18.270;2023-04-24T06:38:28;15.20;;;10.40;;
59093;SDS011;44880;52.814;18.270;2023-04-24T06:43:55;15.20;;;10.20;;
59093;SDS011;44880;52.814;18.270;2023-04-24T06:51:46;14.50;;;10.70;;
59093;SDS011;44880;52.814;18.270;2023-04-24T06:54:18;13.70;;;10.70;;
59093;SDS011;44880;52.814;18.270;2023-04-24T06:59:50;16.60;;;10.30;;
59093;SDS011;44880;52.814;18.270;2023-04-24T07:05:09;18.50;;;12.90;;
59093;SDS011;44880;52.814;18.270;2023-04-24T07:07:41;17.70;;;12.70;;
59093;SDS011;44880;52.814;18.270;2023-04-24T07:10:13;17.00;;;11.70;;
59093;SDS011;44880;52.814;18.270;2023-04-24T07:13:05;16.40;;;10.80;;
59093;SDS011;44880;52.814;18.270;2023-04-24T07:15:37;15.70;;;10.40;;
59093;SDS011;44880;52.814;18.270;2023-04-24T07:21:10;15.70;;;10.30;;
59093;SDS011;44880;52.814;18.270;2023-04-24T07:23:42;15.30;;;10.60;;
59093;SDS011;44880;52.814;18.270;2023-04-24T07:26:29;16.10;;;10.40;;
59093;SDS011;44880;52.814;18.270;2023-04-24T07:29:01;16.10;;;11.40;;
59093;SDS011;44880;52.814;18.270;2023-04-24T07:31:36;15.80;;;11.60;;
59093;SDS011;44880;52.814;18.270;2023-04-24T07:34:21;18.00;;;13.00;;
59093;SDS011;44880;52.814;18.270;2023-04-24T07:39:26;18.50;;;12.20;;
59093;SDS011;44880;52.814;18.270;2023-04-24T07:42:08;16.10;;;11.60;;
59093;SDS011;44880;52.814;18.270;2023-04-24T07:44:39;16.50;;;11.60;;
59093;SDS011;44880;52.814;18.270;2023-04-24T07:47:11;15.70;;;11.20;;
59093;SDS011;44880;52.814;18.270;2023-04-24T07:52:40;14.20;;;10.10;;
59093;SDS011;44880;52.814;18.270;2023-04-24T07:55:16;13.20;;;9.50;;
59093;SDS011;44880;52.814;18.270;2023-04-24T07:58:06;15.20;;;10.80;;
59093;SDS011;44880;52.814;18.270;2023-04-24T08:00:37;13.20;;;9.40;;
59093;SDS011;44880;52.814;18.270;2023-04-24T08:03:10;12.20;;;8.70;;
59093;SDS011;44880;52.814;18.270;2023-04-24T08:05:59;13.20;;;7.70;;
59093;SDS011;44880;52.814;18.270;2023-04-24T08:11:04;11.40;;;7.20;;
59093;SDS011;44880;52.814;18.270;2023-04-24T08:13:55;12.40;;;8.00;;
59093;SDS011;44880;52.814;18.270;2023-04-24T08:21:52;11.10;;;7.60;;
59093;SDS011;44880;52.814;18.270;2023-04-24T08:24:24;10.30;;;6.70;;
59093;SDS011;44880;52.814;18.270;2023-04-24T08:29:50;10.40;;;5.50;;
59093;SDS011;44880;52.814;18.270;2023-04-24T08:32:22;8.40;;;5.40;;
59093;SDS011;44880;52.814;18.270;2023-04-24T08:35:11;11.40;;;6.20;;
59093;SDS011;44880;52.814;18.270;2023-04-24T08:40:14;10.50;;;6.30;;
59093;SDS011;44880;52.814;18.270;2023-04-24T08:42:57;10.50;;;6.00;;
59093;SDS011;44880;52.814;18.270;2023-04-24T08:45:30;11.20;;;6.70;;
59093;SDS011;44880;52.814;18.270;2023-04-24T08:48:04;11.30;;;7.10;;
59093;SDS011;44880;52.814;18.270;2023-04-24T08:53:32;10.50;;;6.50;;
59093;SDS011;44880;52.814;18.270;2023-04-24T08:56:07;11.20;;;6.70;;
59093;SDS011;44880;52.814;18.270;2023-04-24T09:01:30;12.00;;;6.60;;
59093;SDS011;44880;52.814;18.270;2023-04-24T09:07:00;11.30;;;6.40;;
59093;SDS011;44880;52.814;18.270;2023-04-24T09:09:35;11.10;;;6.80;;
59093;SDS011;44880;52.814;18.270;2023-04-24T09:12:46;10.20;;;6.40;;
59093;SDS011;44880;52.814;18.270;2023-04-24T09:18:05;11.30;;;7.10;;
59093;SDS011;44880;52.814;18.270;2023-04-24T09:20:37;11.80;;;7.50;;
59093;SDS011;44880;52.814;18.270;2023-04-24T09:23:58;12.20;;;8.70;;
59093;SDS011;44880;52.814;18.270;2023-04-24T09:26:32;12.00;;;8.40;;
59093;SDS011;44880;52.814;18.270;2023-04-24T09:29:21;14.70;;;8.70;;
59093;SDS011;44880;52.814;18.270;2023-04-24T09:37:27;12.90;;;9.20;;
59093;SDS011;44880;52.814;18.270;2023-04-24T09:42:58;14.60;;;9.80;;
59093;SDS011;44880;52.814;18.270;2023-04-24T09:45:36;12.40;;;9.10;;
59093;SDS011;44880;52.814;18.270;2023-04-24T09:48:35;13.10;;;9.70;;
59093;SDS011;44880;52.814;18.270;2023-04-24T09:51:08;14.00;;;9.90;;
59093;SDS011;44880;52.814;18.270;2023-04-24T09:56:37;14.20;;;10.00;;
59093;SDS011;44880;52.814;18.270;2023-04-24T09:59:33;13.00;;;9.30;;
59093;SDS011;44880;52.814;18.270;2023-04-24T10:02:06;13.40;;;9.60;;
59093;SDS011;44880;52.814;18.270;2023-04-24T10:07:40;12.00;;;9.10;;
59093;SDS011;44880;52.814;18.270;2023-04-24T10:10:13;13.10;;;8.70;;
59093;SDS011;44880;52.814;18.270;2023-04-24T10:15:34;12.10;;;9.10;;
59093;SDS011;44880;52.814;18.270;2023-04-24T10:18:07;13.90;;;9.20;;
59093;SDS011;44880;52.814;18.270;2023-04-24T10:23:36;13.00;;;9.10;;
59093;SDS011;44880;52.814;18.270;2023-04-24T10:26:08;13.90;;;9.60;;
59093;SDS011;44880;52.814;18.270;2023-04-24T10:28:55;13.60;;;9.20;;
59093;SDS011;44880;52.814;18.270;2023-04-24T10:31:29;12.20;;;8.60;;
59093;SDS011;44880;52.814;18.270;2023-04-24T10:34:04;12.80;;;9.00;;
59093;SDS011;44880;52.814;18.270;2023-04-24T10:36:50;13.20;;;8.90;;
59093;SDS011;44880;52.814;18.270;2023-04-24T10:39:22;13.80;;;8.60;;
59093;SDS011;44880;52.814;18.270;2023-04-24T10:41:54;14.40;;;9.40;;
59093;SDS011;44880;52.814;18.270;2023-04-24T10:44:37;13.30;;;8.60;;
59093;SDS011;44880;52.814;18.270;2023-04-24T10:47:13;12.60;;;9.40;;
59093;SDS011;44880;52.814;18.270;2023-04-24T10:49:45;11.60;;;8.70;;
59093;SDS011;44880;52.814;18.270;2023-04-24T10:55:11;11.10;;;8.00;;
59093;SDS011;44880;52.814;18.270;2023-04-24T11:00:38;13.70;;;10.00;;
59093;SDS011;44880;52.814;18.270;2023-04-24T11:06:16;12.30;;;9.60;;
59093;SDS011;44880;52.814;18.270;2023-04-24T11:09:03;14.60;;;9.60;;
59093;SDS011;44880;52.814;18.270;2023-04-24T11:12:02;13.90;;;9.70;;
59093;SDS011;44880;52.814;18.270;2023-04-24T11:17:31;13.60;;;9.90;;
59093;SDS011;44880;52.814;18.270;2023-04-24T11:20:06;13.80;;;10.20;;
59093;SDS011;44880;52.814;18.270;2023-04-24T11:22:57;14.70;;;10.80;;
59093;SDS011;44880;52.814;18.270;2023-04-24T11:25:35;13.50;;;9.80;;
59093;SDS011;44880;52.814;18.270;2023-04-24T11:28:07;13.20;;;9.90;;
59093;SDS011;44880;52.814;18.270;2023-04-24T11:34:23;14.10;;;9.70;;
59093;SDS011;44880;52.814;18.270;2023-04-24T11:36:54;13.20;;;9.70;;
59093;SDS011;44880;52.814;18.270;2023-04-24T11:39:27;14.00;;;10.40;;
59093;SDS011;44880;52.814;18.270;2023-04-24T11:42:16;13.20;;;10.00;;
59093;SDS011;44880;52.814;18.270;2023-04-24T11:44:47;13.00;;;9.20;;
59093;SDS011;44880;52.814;18.270;2023-04-24T11:47:20;12.40;;;8.90;;
59093;SDS011;44880;52.814;18.270;2023-04-24T11:50:14;13.60;;;10.20;;
59093;SDS011;44880;52.814;18.270;2023-04-24T11:52:47;13.90;;;10.50;;
59093;SDS011;44880;52.814;18.270;2023-04-24T11:55:35;15.30;;;10.30;;
59093;SDS011;44880;52.814;18.270;2023-04-24T11:58:07;17.80;;;11.40;;
59093;SDS011;44880;52.814;18.270;2023-04-24T12:00:39;14.20;;;9.70;;
59093;SDS011;44880;52.814;18.270;2023-04-24T12:03:29;15.20;;;10.60;;
59093;SDS011;44880;52.814;18.270;2023-04-24T12:06:08;13.40;;;9.50;;
59093;SDS011;44880;52.814;18.270;2023-04-24T12:08:41;13.20;;;8.60;;
59093;SDS011;44880;52.814;18.270;2023-04-24T12:11:26;11.40;;;7.00;;
59093;SDS011;44880;52.814;18.270;2023-04-24T12:13:58;10.40;;;7.10;;
59093;SDS011;44880;52.814;18.270;2023-04-24T12:19:33;11.40;;;7.40;;
59093;SDS011;44880;52.814;18.270;2023-04-24T12:22:08;11.30;;;7.00;;
59093;SDS011;44880;52.814;18.270;2023-04-24T12:27:25;12.20;;;7.80;;
59093;SDS011;44880;52.814;18.270;2023-04-24T12:29:59;13.10;;;9.40;;
59093;SDS011;44880;52.814;18.270;2023-04-24T12:32:54;9.50;;;5.70;;
59093;SDS011;44880;52.814;18.270;2023-04-24T12:35:27;11.30;;;6.10;;
59093;SDS011;44880;52.814;18.270;2023-04-24T12:41:02;10.90;;;5.40;;
59093;SDS011;44880;52.814;18.270;2023-04-24T12:43:35;11.50;;;5.50;;
59093;SDS011;44880;52.814;18.270;2023-04-24T12:46:21;9.20;;;5.60;;
59093;SDS011;44880;52.814;18.270;2023-04-24T12:48:54;9.70;;;5.60;;
59093;SDS011;44880;52.814;18.270;2023-04-24T12:51:27;10.20;;;5.80;;
59093;SDS011;44880;52.814;18.270;2023-04-24T13:00:18;9.90;;;5.70;;
59093;SDS011;44880;52.814;18.270;2023-04-24T13:05:48;10.20;;;6.20;;
59093;SDS011;44880;52.814;18.270;2023-04-24T13:08:20;11.80;;;6.60;;
59093;SDS011;44880;52.814;18.270;2023-04-24T13:13:59;11.40;;;7.00;;
59093;SDS011;44880;52.814;18.270;2023-04-24T13:17:14;11.00;;;7.00;;
59093;SDS011;44880;52.814;18.270;2023-04-24T13:22:41;13.70;;;7.90;;
59093;SDS011;44880;52.814;18.270;2023-04-24T13:28:00;13.10;;;7.30;;
59093;SDS011;44880;52.814;18.270;2023-04-24T13:30:32;12.70;;;7.60;;
59093;SDS011;44880;52.814;18.270;2023-04-24T13:33:04;11.20;;;7.90;;
59093;SDS011;44880;52.814;18.270;2023-04-24T13:38:31;11.60;;;7.90;;
59093;SDS011;44880;52.814;18.270;2023-04-24T13:41:06;10.70;;;7.80;;
59093;SDS011;44880;52.814;18.270;2023-04-24T13:43:57;11.60;;;8.00;;
59093;SDS011;44880;52.814;18.270;2023-04-24T13:46:35;12.90;;;9.90;;
59093;SDS011;44880;52.814;18.270;2023-04-24T13:49:23;14.00;;;9.50;;
59093;SDS011;44880;52.814;18.270;2023-04-24T13:51:56;12.90;;;9.30;;
59093;SDS011;44880;52.814;18.270;2023-04-24T13:54:28;12.00;;;8.60;;
59093;SDS011;44880;52.814;18.270;2023-04-24T14:00:03;11.40;;;7.70;;
59093;SDS011;44880;52.814;18.270;2023-04-24T14:05:39;11.80;;;7.60;;
59093;SDS011;44880;52.814;18.270;2023-04-24T14:11:07;10.40;;;7.30;;
59093;SDS011;44880;52.814;18.270;2023-04-24T14:13:39;12.30;;;8.10;;
59093;SDS011;44880;52.814;18.270;2023-04-24T14:16:43;11.30;;;7.60;;
59093;SDS011;44880;52.814;18.270;2023-04-24T14:19:15;10.30;;;6.80;;
59093;SDS011;44880;52.814;18.270;2023-04-24T14:24:41;10.70;;;7.20;;
59093;SDS011;44880;52.814;18.270;2023-04-24T14:27:15;10.80;;;6.80;;
59093;SDS011;44880;52.814;18.270;2023-04-24T14:30:26;9.90;;;6.80;;
59093;SDS011;44880;52.814;18.270;2023-04-24T14:35:57;10.50;;;7.50;;
59093;SDS011;44880;52.814;18.270;2023-04-24T14:39:23;11.80;;;7.30;;
59093;SDS011;44880;52.814;18.270;2023-04-24T14:44:56;10.50;;;7.30;;
59093;SDS011;44880;52.814;18.270;2023-04-24T14:50:25;10.90;;;8.00;;
59093;SDS011;44880;52.814;18.270;2023-04-24T14:56:03;11.10;;;7.80;;
59093;SDS011;44880;52.814;18.270;2023-04-24T15:05:14;12.40;;;8.00;;
59093;SDS011;44880;52.814;18.270;2023-04-24T15:10:43;10.90;;;7.10;;
59093;SDS011;44880;52.814;18.270;2023-04-24T15:16:33;9.40;;;5.80;;
59093;SDS011;44880;52.814;18.270;2023-04-24T15:19:28;9.50;;;5.90;;
59093;SDS011;44880;52.814;18.270;2023-04-24T15:22:03;10.30;;;6.50;;
59093;SDS011;44880;52.814;18.270;2023-04-24T15:27:50;10.90;;;6.20;;
59093;SDS011;44880;52.814;18.270;2023-04-24T15:33:23;10.80;;;6.10;;
59093;SDS011;44880;52.814;18.270;2023-04-24T15:38:54;11.10;;;6.40;;
59093;SDS011;44880;52.814;18.270;2023-04-24T15:41:56;12.50;;;6.60;;
59093;SDS011;44880;52.814;18.270;2023-04-24T15:44:31;11.20;;;6.60;;
59093;SDS011;44880;52.814;18.270;2023-04-24T15:50:17;9.80;;;6.00;;
59093;SDS011;44880;52.814;18.270;2023-04-24T15:53:18;10.00;;;5.70;;
59093;SDS011;44880;52.814;18.270;2023-04-24T15:55:55;9.50;;;5.90;;
59093;SDS011;44880;52.814;18.270;2023-04-24T16:01:34;10.70;;;5.80;;
59093;SDS011;44880;52.814;18.270;2023-04-24T16:07:55;9.10;;;5.40;;
59093;SDS011;44880;52.814;18.270;2023-04-24T16:10:39;10.80;;;4.40;;
59093;SDS011;44880;52.814;18.270;2023-04-24T16:13:33;10.30;;;4.20;;
59093;SDS011;44880;52.814;18.270;2023-04-24T16:16:08;10.40;;;4.60;;
59093;SDS011;44880;52.814;18.270;2023-04-24T16:18:41;11.00;;;4.50;;
59093;SDS011;44880;52.814;18.270;2023-04-24T16:21:26;11.50;;;5.80;;
59093;SDS011;44880;52.814;18.270;2023-04-24T16:24:02;9.10;;;5.40;;
59093;SDS011;44880;52.814;18.270;2023-04-24T16:26:35;10.10;;;5.70;;
59093;SDS011;44880;52.814;18.270;2023-04-24T16:32:08;12.30;;;6.50;;
59093;SDS011;44880;52.814;18.270;2023-04-24T16:34:55;12.20;;;7.40;;
59093;SDS011;44880;52.814;18.270;2023-04-24T16:37:33;12.60;;;7.20;;
59093;SDS011;44880;52.814;18.270;2023-04-24T16:40:07;11.50;;;7.00;;
59093;SDS011;44880;52.814;18.270;2023-04-24T16:42:57;12.30;;;7.40;;
59093;SDS011;44880;52.814;18.270;2023-04-24T16:45:29;11.40;;;8.20;;
59093;SDS011;44880;52.814;18.270;2023-04-24T16:48:03;15.30;;;8.30;;
59093;SDS011;44880;52.814;18.270;2023-04-24T16:50:53;13.90;;;8.70;;
59093;SDS011;44880;52.814;18.270;2023-04-24T16:53:26;14.90;;;8.40;;
59093;SDS011;44880;52.814;18.270;2023-04-24T16:58:52;12.70;;;7.80;;
59093;SDS011;44880;52.814;18.270;2023-04-24T17:01:28;12.60;;;7.50;;
59093;SDS011;44880;52.814;18.270;2023-04-24T17:04:14;11.70;;;7.80;;
59093;SDS011;44880;52.814;18.270;2023-04-24T17:06:52;11.40;;;7.00;;
59093;SDS011;44880;52.814;18.270;2023-04-24T17:09:30;10.70;;;6.50;;
59093;SDS011;44880;52.814;18.270;2023-04-24T17:12:21;11.70;;;6.90;;
59093;SDS011;44880;52.814;18.270;2023-04-24T17:15:02;10.10;;;5.40;;
59093;SDS011;44880;52.814;18.270;2023-04-24T17:18:06;8.90;;;4.50;;
59093;SDS011;44880;52.814;18.270;2023-04-24T17:20:49;8.20;;;4.60;;
59093;SDS011;44880;52.814;18.270;2023-04-24T17:23:21;9.20;;;5.50;;
59093;SDS011;44880;52.814;18.270;2023-04-24T17:25:59;9.90;;;4.40;;
59093;SDS011;44880;52.814;18.270;2023-04-24T17:28:32;8.20;;;4.20;;
59093;SDS011;44880;52.814;18.270;2023-04-24T17:31:05;8.60;;;4.00;;
59093;SDS011;44880;52.814;18.270;2023-04-24T17:33:38;8.00;;;3.80;;
59093;SDS011;44880;52.814;18.270;2023-04-24T17:36:21;9.10;;;4.30;;
59093;SDS011;44880;52.814;18.270;2023-04-24T17:38:56;8.30;;;4.40;;
59093;SDS011;44880;52.814;18.270;2023-04-24T17:41:29;10.40;;;4.80;;
59093;SDS011;44880;52.814;18.270;2023-04-24T17:44:05;9.50;;;4.90;;
59093;SDS011;44880;52.814;18.270;2023-04-24T17:46:38;11.80;;;5.40;;
59093;SDS011;44880;52.814;18.270;2023-04-24T17:49:11;9.80;;;4.90;;
59093;SDS011;44880;52.814;18.270;2023-04-24T17:51:45;12.40;;;5.10;;
59093;SDS011;44880;52.814;18.270;2023-04-24T17:54:17;12.50;;;4.40;;
59093;SDS011;44880;52.814;18.270;2023-04-24T17:56:49;12.00;;;4.70;;
59093;SDS011;44880;52.814;18.270;2023-04-24T17:59:22;11.50;;;4.90;;
59093;SDS011;44880;52.814;18.270;2023-04-24T18:01:56;12.10;;;4.30;;
59093;SDS011;44880;52.814;18.270;2023-04-24T18:04:28;13.40;;;4.80;;
59093;SDS011;44880;52.814;18.270;2023-04-24T18:07:01;10.60;;;5.00;;
59093;SDS011;44880;52.814;18.270;2023-04-24T18:09:38;13.00;;;5.40;;
59093;SDS011;44880;52.814;18.270;2023-04-24T18:12:11;13.40;;;5.30;;
59093;SDS011;44880;52.814;18.270;2023-04-24T18:14:44;12.90;;;5.80;;
59093;SDS011;44880;52.814;18.270;2023-04-24T18:19:47;13.30;;;6.30;;
59093;SDS011;44880;52.814;18.270;2023-04-24T18:22:21;13.00;;;5.80;;
59093;SDS011;44880;52.814;18.270;2023-04-24T18:24:54;15.10;;;5.80;;
59093;SDS011;44880;52.814;18.270;2023-04-24T18:27:28;14.30;;;6.20;;
59093;SDS011;44880;52.814;18.270;2023-04-24T18:30:02;16.50;;;7.70;;
59093;SDS011;44880;52.814;18.270;2023-04-24T18:32:44;21.30;;;10.40;;
59093;SDS011;44880;52.814;18.270;2023-04-24T18:35:17;15.70;;;6.70;;
59093;SDS011;44880;52.814;18.270;2023-04-24T18:37:51;13.20;;;7.00;;
59093;SDS011;44880;52.814;18.270;2023-04-24T18:40:32;13.80;;;7.40;;
59093;SDS011;44880;52.814;18.270;2023-04-24T18:43:09;19.00;;;10.80;;
59093;SDS011;44880;52.814;18.270;2023-04-24T18:45:45;15.10;;;8.50;;
59093;SDS011;44880;52.814;18.270;2023-04-24T18:48:22;13.40;;;8.40;;